sensor_id;sensor_type;location;lat;lon;timestamp;P1;durP1;ratioP1;P2;durP2;ratioP2
19374;SDS011;9823;50.936;4.046;2023-03-05T00:01:10;11.23;;;4.90;;
19374;SDS011;9823;50.936;4.046;2023-03-05T00:03:39;17.60;;;5.17;;
19374;SDS011;9823;50.936;4.046;2023-03-05T00:06:05;12.73;;;5.00;;
19374;SDS011;9823;50.936;4.046;2023-03-05T00:08:34;13.80;;;5.63;;
19374;SDS011;9823;50.936;4.046;2023-03-05T00:11:04;17.13;;;5.90;;
19374;SDS011;9823;50.936;4.046;2023-03-05T00:13:32;14.83;;;5.80;;
19374;SDS011;9823;50.936;4.046;2023-03-05T00:16:01;13.47;;;5.33;;
19374;SDS011;9823;50.936;4.046;2023-03-05T00:18:27;13.83;;;5.40;;
19374;SDS011;9823;50.936;4.046;2023-03-05T00:20:57;11.47;;;5.70;;
19374;SDS011;9823;50.936;4.046;2023-03-05T00:23:25;11.07;;;5.43;;
19374;SDS011;9823;50.936;4.046;2023-03-05T00:25:54;14.07;;;5.27;;
19374;SDS011;9823;50.936;4.046;2023-03-05T00:28:20;17.33;;;5.73;;
19374;SDS011;9823;50.936;4.046;2023-03-05T00:30:48;13.60;;;6.13;;
19374;SDS011;9823;50.936;4.046;2023-03-05T00:33:14;13.20;;;6.10;;
19374;SDS011;9823;50.936;4.046;2023-03-05T00:35:44;14.60;;;6.23;;
19374;SDS011;9823;50.936;4.046;2023-03-05T00:38:13;14.63;;;6.20;;
19374;SDS011;9823;50.936;4.046;2023-03-05T00:40:39;18.20;;;6.33;;
19374;SDS011;9823;50.936;4.046;2023-03-05T00:43:05;16.87;;;7.10;;
19374;SDS011;9823;50.936;4.046;2023-03-05T00:45:34;17.83;;;7.30;;
19374;SDS011;9823;50.936;4.046;2023-03-05T00:48:03;16.90;;;7.27;;
19374;SDS011;9823;50.936;4.046;2023-03-05T00:50:29;15.87;;;7.23;;
19374;SDS011;9823;50.936;4.046;2023-03-05T00:52:55;13.70;;;6.37;;
19374;SDS011;9823;50.936;4.046;2023-03-05T00:55:21;19.70;;;6.77;;
19374;SDS011;9823;50.936;4.046;2023-03-05T00:57:49;22.83;;;6.77;;
19374;SDS011;9823;50.936;4.046;2023-03-05T01:00:15;14.00;;;7.40;;
19374;SDS011;9823;50.936;4.046;2023-03-05T01:02:42;15.70;;;7.87;;
19374;SDS011;9823;50.936;4.046;2023-03-05T01:05:11;20.37;;;8.43;;
19374;SDS011;9823;50.936;4.046;2023-03-05T01:07:37;20.60;;;8.73;;
19374;SDS011;9823;50.936;4.046;2023-03-05T01:10:10;16.10;;;8.40;;
19374;SDS011;9823;50.936;4.046;2023-03-05T01:12:41;17.37;;;7.90;;
19374;SDS011;9823;50.936;4.046;2023-03-05T01:15:07;19.07;;;7.30;;
19374;SDS011;9823;50.936;4.046;2023-03-05T01:17:38;20.07;;;7.80;;
19374;SDS011;9823;50.936;4.046;2023-03-05T01:20:06;18.03;;;7.73;;
19374;SDS011;9823;50.936;4.046;2023-03-05T01:22:32;21.87;;;7.57;;
19374;SDS011;9823;50.936;4.046;2023-03-05T01:25:01;16.27;;;7.97;;
19374;SDS011;9823;50.936;4.046;2023-03-05T01:27:27;17.93;;;8.13;;
19374;SDS011;9823;50.936;4.046;2023-03-05T01:29:53;16.07;;;7.17;;
19374;SDS011;9823;50.936;4.046;2023-03-05T01:32:19;16.97;;;8.77;;
19374;SDS011;9823;50.936;4.046;2023-03-05T01:34:45;14.83;;;7.87;;
19374;SDS011;9823;50.936;4.046;2023-03-05T01:37:11;13.40;;;8.03;;
19374;SDS011;9823;50.936;4.046;2023-03-05T01:39:37;17.00;;;7.40;;
19374;SDS011;9823;50.936;4.046;2023-03-05T01:42:05;16.00;;;8.33;;
19374;SDS011;9823;50.936;4.046;2023-03-05T01:44:32;19.67;;;7.47;;
19374;SDS011;9823;50.936;4.046;2023-03-05T01:47:00;19.80;;;7.70;;
19374;SDS011;9823;50.936;4.046;2023-03-05T01:49:28;16.27;;;8.10;;
19374;SDS011;9823;50.936;4.046;2023-03-05T01:54:30;22.03;;;9.30;;
19374;SDS011;9823;50.936;4.046;2023-03-05T01:57:01;22.97;;;8.80;;
19374;SDS011;9823;50.936;4.046;2023-03-05T01:59:29;17.27;;;8.57;;
19374;SDS011;9823;50.936;4.046;2023-03-05T02:02:03;18.50;;;8.70;;
19374;SDS011;9823;50.936;4.046;2023-03-05T02:04:35;19.07;;;8.63;;
19374;SDS011;9823;50.936;4.046;2023-03-05T02:07:07;21.40;;;9.20;;
19374;SDS011;9823;50.936;4.046;2023-03-05T02:09:36;22.37;;;9.13;;
19374;SDS011;9823;50.936;4.046;2023-03-05T02:12:07;22.50;;;8.67;;
19374;SDS011;9823;50.936;4.046;2023-03-05T02:14:37;18.53;;;8.57;;
19374;SDS011;9823;50.936;4.046;2023-03-05T02:17:03;20.17;;;8.30;;
19374;SDS011;9823;50.936;4.046;2023-03-05T02:19:44;17.20;;;7.50;;
19374;SDS011;9823;50.936;4.046;2023-03-05T02:22:14;18.90;;;8.50;;
19374;SDS011;9823;50.936;4.046;2023-03-05T02:24:45;19.03;;;8.77;;
19374;SDS011;9823;50.936;4.046;2023-03-05T02:27:13;17.40;;;8.10;;
19374;SDS011;9823;50.936;4.046;2023-03-05T02:29:44;16.13;;;8.37;;
19374;SDS011;9823;50.936;4.046;2023-03-05T02:32:13;21.07;;;8.83;;
19374;SDS011;9823;50.936;4.046;2023-03-05T02:34:39;15.13;;;7.67;;
19374;SDS011;9823;50.936;4.046;2023-03-05T02:37:09;16.57;;;7.10;;
19374;SDS011;9823;50.936;4.046;2023-03-05T02:39:38;18.67;;;7.93;;
19374;SDS011;9823;50.936;4.046;2023-03-05T02:42:04;19.60;;;8.20;;
19374;SDS011;9823;50.936;4.046;2023-03-05T02:44:30;17.70;;;8.50;;
19374;SDS011;9823;50.936;4.046;2023-03-05T02:46:59;17.90;;;8.33;;
19374;SDS011;9823;50.936;4.046;2023-03-05T02:49:25;17.50;;;8.97;;
19374;SDS011;9823;50.936;4.046;2023-03-05T02:51:51;20.93;;;9.70;;
19374;SDS011;9823;50.936;4.046;2023-03-05T02:54:17;23.53;;;9.90;;
19374;SDS011;9823;50.936;4.046;2023-03-05T02:56:45;21.53;;;10.30;;
19374;SDS011;9823;50.936;4.046;2023-03-05T02:59:14;24.90;;;11.30;;
19374;SDS011;9823;50.936;4.046;2023-03-05T03:01:40;22.53;;;12.00;;
19374;SDS011;9823;50.936;4.046;2023-03-05T03:04:06;29.50;;;12.43;;
19374;SDS011;9823;50.936;4.046;2023-03-05T03:06:34;26.33;;;12.70;;
19374;SDS011;9823;50.936;4.046;2023-03-05T03:09:02;23.07;;;12.20;;
19374;SDS011;9823;50.936;4.046;2023-03-05T03:11:29;21.20;;;12.90;;
19374;SDS011;9823;50.936;4.046;2023-03-05T03:13:55;22.87;;;12.80;;
19374;SDS011;9823;50.936;4.046;2023-03-05T03:16:23;23.13;;;12.53;;
19374;SDS011;9823;50.936;4.046;2023-03-05T03:18:49;26.60;;;12.90;;
19374;SDS011;9823;50.936;4.046;2023-03-05T03:21:18;28.33;;;12.73;;
19374;SDS011;9823;50.936;4.046;2023-03-05T03:23:46;31.40;;;12.80;;
19374;SDS011;9823;50.936;4.046;2023-03-05T03:26:12;21.63;;;12.50;;
19374;SDS011;9823;50.936;4.046;2023-03-05T03:28:38;19.60;;;11.60;;
19374;SDS011;9823;50.936;4.046;2023-03-05T03:31:04;23.83;;;12.57;;
19374;SDS011;9823;50.936;4.046;2023-03-05T03:33:33;21.97;;;11.77;;
19374;SDS011;9823;50.936;4.046;2023-03-05T03:36:01;18.87;;;11.27;;
19374;SDS011;9823;50.936;4.046;2023-03-05T03:38:30;23.50;;;12.30;;
19374;SDS011;9823;50.936;4.046;2023-03-05T03:40:56;21.40;;;12.00;;
19374;SDS011;9823;50.936;4.046;2023-03-05T03:43:27;22.73;;;11.37;;
19374;SDS011;9823;50.936;4.046;2023-03-05T03:45:55;15.80;;;10.57;;
19374;SDS011;9823;50.936;4.046;2023-03-05T03:48:24;19.97;;;11.40;;
19374;SDS011;9823;50.936;4.046;2023-03-05T03:50:50;21.20;;;11.27;;
19374;SDS011;9823;50.936;4.046;2023-03-05T03:53:16;20.93;;;11.20;;
19374;SDS011;9823;50.936;4.046;2023-03-05T03:55:44;22.50;;;12.17;;
19374;SDS011;9823;50.936;4.046;2023-03-05T03:58:13;21.00;;;11.50;;
19374;SDS011;9823;50.936;4.046;2023-03-05T04:00:39;26.37;;;11.63;;
19374;SDS011;9823;50.936;4.046;2023-03-05T04:03:05;19.23;;;10.87;;
19374;SDS011;9823;50.936;4.046;2023-03-05T04:05:32;23.57;;;11.90;;
19374;SDS011;9823;50.936;4.046;2023-03-05T04:07:58;18.90;;;11.93;;
19374;SDS011;9823;50.936;4.046;2023-03-05T04:10:27;23.50;;;11.50;;
19374;SDS011;9823;50.936;4.046;2023-03-05T04:12:55;22.37;;;12.07;;
19374;SDS011;9823;50.936;4.046;2023-03-05T04:15:26;21.93;;;11.93;;
19374;SDS011;9823;50.936;4.046;2023-03-05T04:17:52;23.90;;;12.57;;
19374;SDS011;9823;50.936;4.046;2023-03-05T04:20:21;17.33;;;10.60;;
19374;SDS011;9823;50.936;4.046;2023-03-05T04:22:49;19.70;;;11.07;;
19374;SDS011;9823;50.936;4.046;2023-03-05T04:25:15;23.33;;;11.30;;
19374;SDS011;9823;50.936;4.046;2023-03-05T04:27:41;21.23;;;11.80;;
19374;SDS011;9823;50.936;4.046;2023-03-05T04:30:10;19.07;;;11.37;;
19374;SDS011;9823;50.936;4.046;2023-03-05T04:32:38;19.43;;;12.20;;
19374;SDS011;9823;50.936;4.046;2023-03-05T04:35:04;18.73;;;11.47;;
19374;SDS011;9823;50.936;4.046;2023-03-05T04:37:31;17.63;;;11.00;;
19374;SDS011;9823;50.936;4.046;2023-03-05T04:39:57;19.63;;;10.63;;
19374;SDS011;9823;50.936;4.046;2023-03-05T04:42:25;19.17;;;11.60;;
19374;SDS011;9823;50.936;4.046;2023-03-05T04:44:57;18.73;;;10.37;;
19374;SDS011;9823;50.936;4.046;2023-03-05T04:47:26;19.00;;;10.80;;
19374;SDS011;9823;50.936;4.046;2023-03-05T04:49:52;18.77;;;10.67;;
19374;SDS011;9823;50.936;4.046;2023-03-05T04:52:20;17.30;;;10.43;;
19374;SDS011;9823;50.936;4.046;2023-03-05T04:54:48;18.43;;;10.47;;
19374;SDS011;9823;50.936;4.046;2023-03-05T04:57:15;19.13;;;9.97;;
19374;SDS011;9823;50.936;4.046;2023-03-05T04:59:41;18.03;;;10.90;;
19374;SDS011;9823;50.936;4.046;2023-03-05T05:02:07;19.63;;;10.57;;
19374;SDS011;9823;50.936;4.046;2023-03-05T05:04:33;17.00;;;9.97;;
19374;SDS011;9823;50.936;4.046;2023-03-05T05:07:02;15.70;;;10.20;;
19374;SDS011;9823;50.936;4.046;2023-03-05T05:09:28;18.47;;;10.13;;
19374;SDS011;9823;50.936;4.046;2023-03-05T05:11:57;20.10;;;9.70;;
19374;SDS011;9823;50.936;4.046;2023-03-05T05:14:23;16.10;;;9.57;;
19374;SDS011;9823;50.936;4.046;2023-03-05T05:16:52;16.27;;;9.43;;
19374;SDS011;9823;50.936;4.046;2023-03-05T05:19:20;19.87;;;10.27;;
19374;SDS011;9823;50.936;4.046;2023-03-05T05:21:46;15.57;;;10.07;;
19374;SDS011;9823;50.936;4.046;2023-03-05T05:24:14;14.33;;;8.47;;
19374;SDS011;9823;50.936;4.046;2023-03-05T05:26:42;16.67;;;9.47;;
19374;SDS011;9823;50.936;4.046;2023-03-05T05:29:11;17.87;;;9.37;;
19374;SDS011;9823;50.936;4.046;2023-03-05T05:31:37;15.20;;;9.43;;
19374;SDS011;9823;50.936;4.046;2023-03-05T05:34:03;15.67;;;9.67;;
19374;SDS011;9823;50.936;4.046;2023-03-05T05:36:32;18.67;;;9.70;;
19374;SDS011;9823;50.936;4.046;2023-03-05T05:38:58;15.57;;;9.60;;
19374;SDS011;9823;50.936;4.046;2023-03-05T05:41:24;19.90;;;9.53;;
19374;SDS011;9823;50.936;4.046;2023-03-05T05:43:50;17.77;;;9.53;;
19374;SDS011;9823;50.936;4.046;2023-03-05T05:46:18;17.97;;;9.73;;
19374;SDS011;9823;50.936;4.046;2023-03-05T05:48:47;17.87;;;8.60;;
19374;SDS011;9823;50.936;4.046;2023-03-05T05:51:16;18.93;;;9.17;;
19374;SDS011;9823;50.936;4.046;2023-03-05T05:53:45;15.30;;;8.83;;
19374;SDS011;9823;50.936;4.046;2023-03-05T05:56:14;14.80;;;8.80;;
19374;SDS011;9823;50.936;4.046;2023-03-05T05:58:44;15.17;;;8.03;;
19374;SDS011;9823;50.936;4.046;2023-03-05T06:01:17;16.10;;;8.87;;
19374;SDS011;9823;50.936;4.046;2023-03-05T06:03:44;15.43;;;8.13;;
19374;SDS011;9823;50.936;4.046;2023-03-05T06:06:13;17.10;;;8.57;;
19374;SDS011;9823;50.936;4.046;2023-03-05T06:08:40;17.60;;;8.70;;
19374;SDS011;9823;50.936;4.046;2023-03-05T06:11:06;18.83;;;9.30;;
19374;SDS011;9823;50.936;4.046;2023-03-05T06:13:32;16.03;;;9.00;;
19374;SDS011;9823;50.936;4.046;2023-03-05T06:15:59;17.93;;;9.67;;
19374;SDS011;9823;50.936;4.046;2023-03-05T06:18:25;17.10;;;8.83;;
19374;SDS011;9823;50.936;4.046;2023-03-05T06:20:57;19.13;;;9.50;;
19374;SDS011;9823;50.936;4.046;2023-03-05T06:23:26;18.33;;;9.10;;
19374;SDS011;9823;50.936;4.046;2023-03-05T06:25:57;23.13;;;8.70;;
19374;SDS011;9823;50.936;4.046;2023-03-05T06:28:26;19.27;;;9.27;;
19374;SDS011;9823;50.936;4.046;2023-03-05T06:31:02;16.37;;;8.57;;
19374;SDS011;9823;50.936;4.046;2023-03-05T06:33:31;17.00;;;9.40;;
19374;SDS011;9823;50.936;4.046;2023-03-05T06:36:01;14.37;;;8.87;;
19374;SDS011;9823;50.936;4.046;2023-03-05T06:38:27;24.67;;;9.37;;
19374;SDS011;9823;50.936;4.046;2023-03-05T06:40:53;17.43;;;9.37;;
19374;SDS011;9823;50.936;4.046;2023-03-05T06:43:21;15.40;;;8.63;;
19374;SDS011;9823;50.936;4.046;2023-03-05T06:45:47;16.03;;;8.70;;
19374;SDS011;9823;50.936;4.046;2023-03-05T06:48:18;18.13;;;8.73;;
19374;SDS011;9823;50.936;4.046;2023-03-05T06:50:44;15.57;;;8.57;;
19374;SDS011;9823;50.936;4.046;2023-03-05T06:53:10;14.50;;;8.30;;
19374;SDS011;9823;50.936;4.046;2023-03-05T06:55:36;15.97;;;7.23;;
19374;SDS011;9823;50.936;4.046;2023-03-05T06:58:03;12.47;;;6.93;;
19374;SDS011;9823;50.936;4.046;2023-03-05T07:00:29;12.87;;;7.83;;
19374;SDS011;9823;50.936;4.046;2023-03-05T07:02:55;13.57;;;7.80;;
19374;SDS011;9823;50.936;4.046;2023-03-05T07:05:21;14.73;;;7.80;;
19374;SDS011;9823;50.936;4.046;2023-03-05T07:07:54;14.10;;;7.83;;
19374;SDS011;9823;50.936;4.046;2023-03-05T07:10:22;16.27;;;8.27;;
19374;SDS011;9823;50.936;4.046;2023-03-05T07:12:50;13.40;;;8.43;;
19374;SDS011;9823;50.936;4.046;2023-03-05T07:15:16;15.43;;;8.50;;
19374;SDS011;9823;50.936;4.046;2023-03-05T07:17:42;17.70;;;8.47;;
19374;SDS011;9823;50.936;4.046;2023-03-05T07:20:11;15.67;;;8.27;;
19374;SDS011;9823;50.936;4.046;2023-03-05T07:22:41;15.37;;;9.20;;
19374;SDS011;9823;50.936;4.046;2023-03-05T07:25:07;12.93;;;7.87;;
19374;SDS011;9823;50.936;4.046;2023-03-05T07:27:34;14.87;;;8.70;;
19374;SDS011;9823;50.936;4.046;2023-03-05T07:30:03;15.17;;;8.30;;
19374;SDS011;9823;50.936;4.046;2023-03-05T07:32:33;13.00;;;7.73;;
19374;SDS011;9823;50.936;4.046;2023-03-05T07:35:02;12.27;;;7.80;;
19374;SDS011;9823;50.936;4.046;2023-03-05T07:37:32;14.60;;;9.03;;
19374;SDS011;9823;50.936;4.046;2023-03-05T07:39:58;11.53;;;7.50;;
19374;SDS011;9823;50.936;4.046;2023-03-05T07:42:24;14.87;;;8.37;;
19374;SDS011;9823;50.936;4.046;2023-03-05T07:44:50;11.80;;;7.40;;
19374;SDS011;9823;50.936;4.046;2023-03-05T07:47:19;10.70;;;7.33;;
19374;SDS011;9823;50.936;4.046;2023-03-05T07:49:45;12.13;;;7.27;;
19374;SDS011;9823;50.936;4.046;2023-03-05T07:52:11;12.60;;;7.80;;
19374;SDS011;9823;50.936;4.046;2023-03-05T07:54:37;11.90;;;7.73;;
19374;SDS011;9823;50.936;4.046;2023-03-05T07:57:03;17.47;;;8.67;;
19374;SDS011;9823;50.936;4.046;2023-03-05T07:59:30;17.80;;;9.13;;
19374;SDS011;9823;50.936;4.046;2023-03-05T08:01:56;13.27;;;8.50;;
19374;SDS011;9823;50.936;4.046;2023-03-05T08:04:22;14.43;;;8.90;;
19374;SDS011;9823;50.936;4.046;2023-03-05T08:06:48;13.43;;;8.93;;
19374;SDS011;9823;50.936;4.046;2023-03-05T08:09:15;14.03;;;8.90;;
19374;SDS011;9823;50.936;4.046;2023-03-05T08:11:41;12.57;;;8.07;;
19374;SDS011;9823;50.936;4.046;2023-03-05T08:14:08;11.10;;;7.57;;
19374;SDS011;9823;50.936;4.046;2023-03-05T08:16:34;11.23;;;7.40;;
19374;SDS011;9823;50.936;4.046;2023-03-05T08:19:02;10.07;;;6.63;;
19374;SDS011;9823;50.936;4.046;2023-03-05T08:21:32;13.70;;;7.53;;
19374;SDS011;9823;50.936;4.046;2023-03-05T08:24:01;11.47;;;6.43;;
19374;SDS011;9823;50.936;4.046;2023-03-05T08:26:31;9.97;;;6.37;;
19374;SDS011;9823;50.936;4.046;2023-03-05T08:29:00;9.27;;;5.50;;
19374;SDS011;9823;50.936;4.046;2023-03-05T08:31:27;10.03;;;5.70;;
19374;SDS011;9823;50.936;4.046;2023-03-05T08:33:59;8.53;;;5.50;;
19374;SDS011;9823;50.936;4.046;2023-03-05T08:36:28;8.67;;;5.23;;
19374;SDS011;9823;50.936;4.046;2023-03-05T08:38:54;8.20;;;5.10;;
19374;SDS011;9823;50.936;4.046;2023-03-05T08:41:20;7.57;;;5.10;;
19374;SDS011;9823;50.936;4.046;2023-03-05T08:43:46;7.47;;;5.07;;
19374;SDS011;9823;50.936;4.046;2023-03-05T08:46:17;7.33;;;4.93;;
19374;SDS011;9823;50.936;4.046;2023-03-05T08:48:44;7.57;;;4.23;;
19374;SDS011;9823;50.936;4.046;2023-03-05T08:51:15;9.67;;;4.50;;
19374;SDS011;9823;50.936;4.046;2023-03-05T08:53:45;5.47;;;3.73;;
19374;SDS011;9823;50.936;4.046;2023-03-05T08:56:11;8.40;;;4.37;;
19374;SDS011;9823;50.936;4.046;2023-03-05T08:58:37;7.30;;;4.20;;
19374;SDS011;9823;50.936;4.046;2023-03-05T09:01:11;5.43;;;3.57;;
19374;SDS011;9823;50.936;4.046;2023-03-05T09:03:43;6.50;;;3.83;;
19374;SDS011;9823;50.936;4.046;2023-03-05T09:06:17;6.47;;;3.93;;
19374;SDS011;9823;50.936;4.046;2023-03-05T09:08:43;5.83;;;3.13;;
19374;SDS011;9823;50.936;4.046;2023-03-05T09:11:14;3.23;;;1.83;;
19374;SDS011;9823;50.936;4.046;2023-03-05T09:13:42;3.40;;;1.90;;
19374;SDS011;9823;50.936;4.046;2023-03-05T09:16:12;2.80;;;1.60;;
19374;SDS011;9823;50.936;4.046;2023-03-05T09:18:38;4.03;;;2.07;;
19374;SDS011;9823;50.936;4.046;2023-03-05T09:21:11;3.57;;;1.80;;
19374;SDS011;9823;50.936;4.046;2023-03-05T09:23:40;6.73;;;2.10;;
19374;SDS011;9823;50.936;4.046;2023-03-05T09:26:07;3.80;;;2.43;;
19374;SDS011;9823;50.936;4.046;2023-03-05T09:28:33;6.17;;;2.60;;
19374;SDS011;9823;50.936;4.046;2023-03-05T09:31:03;3.47;;;1.87;;
19374;SDS011;9823;50.936;4.046;2023-03-05T09:33:32;4.67;;;2.40;;
19374;SDS011;9823;50.936;4.046;2023-03-05T09:36:01;3.23;;;2.50;;
19374;SDS011;9823;50.936;4.046;2023-03-05T09:38:27;6.20;;;2.43;;
19374;SDS011;9823;50.936;4.046;2023-03-05T09:41:11;4.93;;;2.57;;
19374;SDS011;9823;50.936;4.046;2023-03-05T09:51:21;13.60;;;6.20;;
19374;SDS011;9823;50.936;4.046;2023-03-05T09:56:29;10.10;;;5.30;;
19374;SDS011;9823;50.936;4.046;2023-03-05T09:59:30;9.00;;;5.23;;
19374;SDS011;9823;50.936;4.046;2023-03-05T10:01:49;20.87;;;8.33;;
19374;SDS011;9823;50.936;4.046;2023-03-05T10:06:48;15.83;;;7.20;;
19374;SDS011;9823;50.936;4.046;2023-03-05T10:09:22;7.77;;;4.40;;
19374;SDS011;9823;50.936;4.046;2023-03-05T10:12:00;9.33;;;5.20;;
19374;SDS011;9823;50.936;4.046;2023-03-05T10:14:34;9.30;;;4.63;;
19374;SDS011;9823;50.936;4.046;2023-03-05T10:25:19;6.47;;;3.17;;
19374;SDS011;9823;50.936;4.046;2023-03-05T10:30:30;4.97;;;2.73;;
19374;SDS011;9823;50.936;4.046;2023-03-05T10:33:12;3.73;;;2.60;;
19374;SDS011;9823;50.936;4.046;2023-03-05T10:40:56;5.43;;;3.83;;
19374;SDS011;9823;50.936;4.046;2023-03-05T10:46:29;6.63;;;4.37;;
19374;SDS011;9823;50.936;4.046;2023-03-05T10:49:01;7.57;;;4.17;;
19374;SDS011;9823;50.936;4.046;2023-03-05T10:51:33;6.07;;;4.10;;
19374;SDS011;9823;50.936;4.046;2023-03-05T10:54:04;5.70;;;3.63;;
19374;SDS011;9823;50.936;4.046;2023-03-05T10:56:34;4.80;;;3.53;;
19374;SDS011;9823;50.936;4.046;2023-03-05T10:59:00;4.87;;;3.30;;
19374;SDS011;9823;50.936;4.046;2023-03-05T11:01:28;5.97;;;3.10;;
19374;SDS011;9823;50.936;4.046;2023-03-05T11:03:59;5.03;;;3.10;;
19374;SDS011;9823;50.936;4.046;2023-03-05T11:14:26;5.67;;;2.47;;
19374;SDS011;9823;50.936;4.046;2023-03-05T11:16:55;4.73;;;2.80;;
19374;SDS011;9823;50.936;4.046;2023-03-05T11:24:30;6.60;;;3.63;;
19374;SDS011;9823;50.936;4.046;2023-03-05T11:26:58;4.03;;;2.73;;
19374;SDS011;9823;50.936;4.046;2023-03-05T11:29:29;4.47;;;3.10;;
19374;SDS011;9823;50.936;4.046;2023-03-05T11:32:00;7.80;;;3.70;;
19374;SDS011;9823;50.936;4.046;2023-03-05T11:34:39;5.77;;;3.37;;
19374;SDS011;9823;50.936;4.046;2023-03-05T11:37:05;5.67;;;3.00;;
19374;SDS011;9823;50.936;4.046;2023-03-05T11:39:32;7.97;;;3.40;;
19374;SDS011;9823;50.936;4.046;2023-03-05T11:42:14;3.23;;;1.20;;
19374;SDS011;9823;50.936;4.046;2023-03-05T11:44:56;2.20;;;1.10;;
19374;SDS011;9823;50.936;4.046;2023-03-05T11:49:50;1.80;;;0.83;;
19374;SDS011;9823;50.936;4.046;2023-03-05T11:55:03;1.80;;;0.90;;
19374;SDS011;9823;50.936;4.046;2023-03-05T12:00:26;2.77;;;0.90;;
19374;SDS011;9823;50.936;4.046;2023-03-05T12:02:53;2.17;;;1.20;;
19374;SDS011;9823;50.936;4.046;2023-03-05T12:05:23;1.73;;;0.70;;
19374;SDS011;9823;50.936;4.046;2023-03-05T12:07:50;2.20;;;0.93;;
19374;SDS011;9823;50.936;4.046;2023-03-05T12:10:19;2.70;;;1.00;;
19374;SDS011;9823;50.936;4.046;2023-03-05T12:12:47;2.63;;;1.10;;
19374;SDS011;9823;50.936;4.046;2023-03-05T12:15:29;2.30;;;1.20;;
19374;SDS011;9823;50.936;4.046;2023-03-05T12:23:13;3.77;;;1.00;;
19374;SDS011;9823;50.936;4.046;2023-03-05T12:30:59;5.13;;;1.33;;
19374;SDS011;9823;50.936;4.046;2023-03-05T12:36:43;3.37;;;1.37;;
19374;SDS011;9823;50.936;4.046;2023-03-05T12:46:34;6.20;;;1.40;;
19374;SDS011;9823;50.936;4.046;2023-03-05T12:51:55;1.93;;;0.97;;
19374;SDS011;9823;50.936;4.046;2023-03-05T12:56:55;1.77;;;1.00;;
19374;SDS011;9823;50.936;4.046;2023-03-05T12:59:22;2.00;;;0.90;;
19374;SDS011;9823;50.936;4.046;2023-03-05T13:01:51;1.90;;;1.17;;
19374;SDS011;9823;50.936;4.046;2023-03-05T13:04:21;1.53;;;0.80;;
19374;SDS011;9823;50.936;4.046;2023-03-05T13:07:02;1.80;;;1.00;;
19374;SDS011;9823;50.936;4.046;2023-03-05T13:09:30;5.03;;;1.47;;
19374;SDS011;9823;50.936;4.046;2023-03-05T13:11:59;3.63;;;1.23;;
19374;SDS011;9823;50.936;4.046;2023-03-05T13:16:52;5.37;;;2.03;;
19374;SDS011;9823;50.936;4.046;2023-03-05T13:19:18;3.30;;;1.47;;
19374;SDS011;9823;50.936;4.046;2023-03-05T13:21:44;2.97;;;1.10;;
19374;SDS011;9823;50.936;4.046;2023-03-05T13:24:18;2.53;;;1.43;;
19374;SDS011;9823;50.936;4.046;2023-03-05T13:26:44;2.23;;;1.30;;
19374;SDS011;9823;50.936;4.046;2023-03-05T13:31:44;2.00;;;1.30;;
19374;SDS011;9823;50.936;4.046;2023-03-05T13:34:20;3.67;;;1.50;;
19374;SDS011;9823;50.936;4.046;2023-03-05T13:36:49;2.33;;;1.50;;
19374;SDS011;9823;50.936;4.046;2023-03-05T13:39:24;2.93;;;1.20;;
19374;SDS011;9823;50.936;4.046;2023-03-05T13:42:03;3.70;;;1.30;;
19374;SDS011;9823;50.936;4.046;2023-03-05T13:44:29;2.23;;;1.20;;
19374;SDS011;9823;50.936;4.046;2023-03-05T13:49:42;2.80;;;1.40;;
19374;SDS011;9823;50.936;4.046;2023-03-05T13:52:10;2.93;;;1.30;;
19374;SDS011;9823;50.936;4.046;2023-03-05T13:54:39;2.60;;;1.10;;
19374;SDS011;9823;50.936;4.046;2023-03-05T13:57:29;2.40;;;1.00;;
19374;SDS011;9823;50.936;4.046;2023-03-05T13:59:54;1.90;;;1.13;;
19374;SDS011;9823;50.936;4.046;2023-03-05T14:02:27;3.20;;;1.30;;
19374;SDS011;9823;50.936;4.046;2023-03-05T14:04:54;6.77;;;2.20;;
19374;SDS011;9823;50.936;4.046;2023-03-05T14:07:36;3.03;;;1.73;;
19374;SDS011;9823;50.936;4.046;2023-03-05T14:12:50;4.17;;;1.67;;
19374;SDS011;9823;50.936;4.046;2023-03-05T14:15:22;5.17;;;2.10;;
19374;SDS011;9823;50.936;4.046;2023-03-05T14:17:49;6.27;;;1.97;;
19374;SDS011;9823;50.936;4.046;2023-03-05T14:20:23;5.10;;;2.23;;
19374;SDS011;9823;50.936;4.046;2023-03-05T14:22:50;5.93;;;2.33;;
19374;SDS011;9823;50.936;4.046;2023-03-05T14:25:31;4.33;;;2.17;;
19374;SDS011;9823;50.936;4.046;2023-03-05T14:28:18;2.90;;;1.87;;
19374;SDS011;9823;50.936;4.046;2023-03-05T14:30:46;5.87;;;2.00;;
19374;SDS011;9823;50.936;4.046;2023-03-05T14:33:12;3.10;;;1.90;;
19374;SDS011;9823;50.936;4.046;2023-03-05T14:35:43;4.27;;;1.97;;
19374;SDS011;9823;50.936;4.046;2023-03-05T14:38:19;3.67;;;1.70;;
19374;SDS011;9823;50.936;4.046;2023-03-05T14:40:47;3.57;;;1.90;;
19374;SDS011;9823;50.936;4.046;2023-03-05T14:43:15;2.67;;;1.80;;
19374;SDS011;9823;50.936;4.046;2023-03-05T14:45:41;4.90;;;1.80;;
19374;SDS011;9823;50.936;4.046;2023-03-05T14:48:09;3.47;;;2.00;;
19374;SDS011;9823;50.936;4.046;2023-03-05T14:50:36;3.97;;;1.70;;
19374;SDS011;9823;50.936;4.046;2023-03-05T14:53:06;4.13;;;1.77;;
19374;SDS011;9823;50.936;4.046;2023-03-05T14:55:33;4.50;;;2.03;;
19374;SDS011;9823;50.936;4.046;2023-03-05T14:58:03;7.57;;;1.60;;
19374;SDS011;9823;50.936;4.046;2023-03-05T15:00:34;3.90;;;1.90;;
19374;SDS011;9823;50.936;4.046;2023-03-05T15:03:00;4.33;;;2.00;;
19374;SDS011;9823;50.936;4.046;2023-03-05T15:05:26;5.53;;;1.93;;
19374;SDS011;9823;50.936;4.046;2023-03-05T15:07:57;5.90;;;2.10;;
19374;SDS011;9823;50.936;4.046;2023-03-05T15:10:27;4.93;;;1.80;;
19374;SDS011;9823;50.936;4.046;2023-03-05T15:12:54;5.07;;;1.97;;
19374;SDS011;9823;50.936;4.046;2023-03-05T15:15:23;5.87;;;2.13;;
19374;SDS011;9823;50.936;4.046;2023-03-05T15:17:51;3.23;;;1.70;;
19374;SDS011;9823;50.936;4.046;2023-03-05T15:20:20;4.20;;;2.03;;
19374;SDS011;9823;50.936;4.046;2023-03-05T15:22:46;4.83;;;2.17;;
19374;SDS011;9823;50.936;4.046;2023-03-05T15:25:13;8.57;;;2.50;;
19374;SDS011;9823;50.936;4.046;2023-03-05T15:27:39;5.13;;;2.40;;
19374;SDS011;9823;50.936;4.046;2023-03-05T15:30:06;4.17;;;2.17;;
19374;SDS011;9823;50.936;4.046;2023-03-05T15:32:32;6.23;;;2.50;;
19374;SDS011;9823;50.936;4.046;2023-03-05T15:34:59;7.47;;;3.03;;
19374;SDS011;9823;50.936;4.046;2023-03-05T15:37:25;7.57;;;2.37;;
19374;SDS011;9823;50.936;4.046;2023-03-05T15:39:51;7.37;;;3.23;;
19374;SDS011;9823;50.936;4.046;2023-03-05T15:42:20;7.13;;;3.10;;
19374;SDS011;9823;50.936;4.046;2023-03-05T15:44:48;5.53;;;3.07;;
19374;SDS011;9823;50.936;4.046;2023-03-05T15:47:17;7.50;;;3.87;;
19374;SDS011;9823;50.936;4.046;2023-03-05T15:49:47;7.60;;;4.07;;
19374;SDS011;9823;50.936;4.046;2023-03-05T15:52:15;8.13;;;4.03;;
19374;SDS011;9823;50.936;4.046;2023-03-05T15:54:44;7.67;;;4.27;;
19374;SDS011;9823;50.936;4.046;2023-03-05T15:57:10;9.03;;;4.30;;
19374;SDS011;9823;50.936;4.046;2023-03-05T15:59:39;9.07;;;4.33;;
19374;SDS011;9823;50.936;4.046;2023-03-05T16:02:06;8.60;;;4.10;;
19374;SDS011;9823;50.936;4.046;2023-03-05T16:04:32;9.30;;;4.70;;
19374;SDS011;9823;50.936;4.046;2023-03-05T16:07:00;9.43;;;5.03;;
19374;SDS011;9823;50.936;4.046;2023-03-05T16:09:33;7.57;;;4.27;;
19374;SDS011;9823;50.936;4.046;2023-03-05T16:12:00;9.20;;;4.70;;
19374;SDS011;9823;50.936;4.046;2023-03-05T16:14:29;11.13;;;5.40;;
19374;SDS011;9823;50.936;4.046;2023-03-05T16:16:57;11.43;;;6.00;;
19374;SDS011;9823;50.936;4.046;2023-03-05T16:19:23;11.40;;;5.57;;
19374;SDS011;9823;50.936;4.046;2023-03-05T16:21:50;9.37;;;5.30;;
19374;SDS011;9823;50.936;4.046;2023-03-05T16:24:23;9.80;;;5.10;;
19374;SDS011;9823;50.936;4.046;2023-03-05T16:26:49;14.07;;;5.60;;
19374;SDS011;9823;50.936;4.046;2023-03-05T16:29:17;9.90;;;5.23;;
19374;SDS011;9823;50.936;4.046;2023-03-05T16:31:45;10.23;;;4.90;;